Time;durP1;ratioP1;P1;durP2;ratioP2;P2;SDS_P1;SDS_P2;PMS_P1;PMS_P2;Temp;Humidity;BMP_temperature;BMP_pressure;BME280_temperature;BME280_humidity;BME280_pressure;Samples;Min_cycle;Max_cycle;Signal;HPM_P1;HPM_P2
2022/04/09 00:00:09;;;;;;;7.33;2.10;;;7.60;99.90;;;;;;5066247;28;20215;-37
2022/04/09 00:02:42;;;;;;;7.97;2.00;;;7.60;99.90;;;;;;5067701;28;20199;-36
2022/04/09 00:05:17;;;;;;;7.83;2.30;;;7.70;99.90;;;;;;5066813;28;20626;-36
2022/04/09 00:07:44;;;;;;;8.67;1.73;;;7.60;99.90;;;;;;5061936;28;20203;-37
2022/04/09 00:10:13;;;;;;;9.37;2.00;;;7.60;99.90;;;;;;5055537;28;20315;-36
2022/04/09 00:12:46;;;;;;;8.50;1.80;;;7.60;99.90;;;;;;5067547;28;20211;-36
2022/04/09 00:15:16;;;;;;;10.77;2.33;;;7.60;99.90;;;;;;5047875;28;20216;-43
2022/04/09 00:17:47;;;;;;;5.77;1.60;;;7.60;99.90;;;;;;5060574;28;20215;-45
2022/04/09 00:20:17;;;;;;;7.57;1.67;;;7.60;99.90;;;;;;5065811;28;20203;-45
2022/04/09 00:22:47;;;;;;;9.80;2.13;;;7.60;99.90;;;;;;5071206;28;20204;-44
2022/04/09 00:25:21;;;;;;;8.17;2.00;;;7.60;99.90;;;;;;5066516;28;20653;-45
2022/04/09 00:27:48;;;;;;;12.40;2.40;;;7.60;99.90;;;;;;5056866;28;20231;-42
2022/04/09 00:30:19;;;;;;;6.47;1.60;;;7.60;99.90;;;;;;5064384;28;20203;-43
2022/04/09 00:32:48;;;;;;;9.20;1.70;;;7.60;99.90;;;;;;5066396;28;20291;-44
2022/04/09 00:35:20;;;;;;;11.73;2.03;;;7.60;99.90;;;;;;5061694;28;20686;-43
2022/04/09 00:37:50;;;;;;;6.33;1.93;;;7.50;99.90;;;;;;5051484;28;20296;-42
2022/04/09 00:40:18;;;;;;;6.50;1.97;;;7.50;99.90;;;;;;5046332;28;20208;-42
2022/04/09 00:42:48;;;;;;;4.70;1.60;;;7.50;99.90;;;;;;5056949;28;20267;-43
2022/04/09 00:45:18;;;;;;;13.17;2.20;;;7.50;99.90;;;;;;5047577;28;20561;-43
2022/04/09 00:47:45;;;;;;;9.60;1.80;;;7.50;99.90;;;;;;5064503;28;20237;-44
2022/04/09 00:50:13;;;;;;;13.80;2.33;;;7.50;99.90;;;;;;5059124;28;20195;-44
2022/04/09 00:52:48;;;;;;;10.20;1.80;;;7.50;99.90;;;;;;5065453;28;20207;-44
2022/04/09 00:56:12;;;;;;;11.63;2.37;;;7.50;99.90;;;;;;5065064;28;20721;-44
2022/04/09 00:58:21;;;;;;;8.20;2.13;;;7.50;99.90;;;;;;5062828;28;20231;-44
2022/04/09 01:00:51;;;;;;;10.70;2.47;;;7.50;99.90;;;;;;5064902;28;20698;-44
2022/04/09 01:03:21;;;;;;;7.77;2.23;;;7.50;99.90;;;;;;5058174;28;20261;-43
2022/04/09 01:05:49;;;;;;;10.70;2.70;;;7.50;99.90;;;;;;5056402;28;20255;-43
2022/04/09 01:08:19;;;;;;;9.67;2.83;;;7.50;99.90;;;;;;5063723;28;20200;-43
2022/04/09 01:10:47;;;;;;;11.50;2.87;;;7.50;99.90;;;;;;5057826;28;20208;-42
2022/04/09 01:13:15;;;;;;;11.37;2.70;;;7.40;99.90;;;;;;5064368;28;20200;-43
2022/04/09 01:15:42;;;;;;;11.13;2.63;;;7.50;99.90;;;;;;5066518;28;20262;-36
2022/04/09 01:18:15;;;;;;;11.77;3.30;;;7.40;99.90;;;;;;5063339;28;20302;-36
2022/04/09 01:20:43;;;;;;;14.33;3.07;;;7.40;99.90;;;;;;5049490;28;20292;-36
2022/04/09 01:23:12;;;;;;;10.40;3.10;;;7.40;99.90;;;;;;5056754;28;20568;-36
2022/04/09 01:25:41;;;;;;;11.10;2.90;;;7.40;99.90;;;;;;5063785;28;20691;-36
2022/04/09 01:28:11;;;;;;;16.90;3.27;;;7.40;99.90;;;;;;5056075;28;20219;-36
2022/04/09 01:30:40;;;;;;;7.40;2.70;;;7.40;99.90;;;;;;5065109;28;20226;-36
2022/04/09 01:33:19;;;;;;;11.47;2.90;;;7.40;99.90;;;;;;5047471;28;20203;-37
2022/04/09 01:35:47;;;;;;;10.57;2.50;;;7.40;99.90;;;;;;5069160;28;20204;-37
2022/04/09 01:38:18;;;;;;;11.90;2.83;;;7.40;99.90;;;;;;5054162;28;20220;-37
2022/04/09 01:40:47;;;;;;;12.37;3.67;;;7.30;99.90;;;;;;5052736;28;20192;-36
2022/04/09 01:43:19;;;;;;;15.40;3.40;;;7.40;99.90;;;;;;5051494;28;20303;-36
2022/04/09 01:45:47;;;;;;;8.07;3.10;;;7.30;99.90;;;;;;5062032;28;20215;-36
2022/04/09 01:48:14;;;;;;;15.40;3.37;;;7.30;99.90;;;;;;5054351;28;20220;-36
2022/04/09 01:50:41;;;;;;;12.13;3.27;;;7.30;99.90;;;;;;5057888;28;20200;-36
2022/04/09 01:53:13;;;;;;;10.80;3.00;;;7.30;99.90;;;;;;5053937;28;20273;-36
2022/04/09 01:55:46;;;;;;;11.93;3.20;;;7.30;99.90;;;;;;5051978;28;20244;-36
2022/04/09 01:58:15;;;;;;;9.07;3.07;;;7.30;99.90;;;;;;5047081;28;20273;-36
2022/04/09 02:00:42;;;;;;;12.73;3.27;;;7.30;99.90;;;;;;5049575;28;20207;-36
2022/04/09 02:03:10;;;;;;;12.37;3.10;;;7.20;99.90;;;;;;5055365;28;20741;-36
2022/04/09 02:05:39;;;;;;;11.03;3.03;;;7.20;99.90;;;;;;5051071;28;20212;-36
2022/04/09 02:08:07;;;;;;;10.30;2.87;;;7.20;99.90;;;;;;5049002;28;20236;-36
2022/04/09 02:10:37;;;;;;;10.43;2.80;;;7.20;99.90;;;;;;5052068;28;20200;-37
2022/04/09 02:13:12;;;;;;;16.23;3.00;;;7.20;99.90;;;;;;5050969;28;20196;-38
2022/04/09 02:15:43;;;;;;;10.27;2.80;;;7.20;99.90;;;;;;5066065;28;20235;-37
2022/04/09 02:18:11;;;;;;;12.73;3.10;;;7.20;99.90;;;;;;5069943;28;20273;-37
2022/04/09 02:20:38;;;;;;;15.57;3.40;;;7.10;99.90;;;;;;5081124;28;20229;-37
2022/04/09 02:23:08;;;;;;;10.40;2.83;;;7.10;99.90;;;;;;5070719;28;20215;-37
2022/04/09 02:25:35;;;;;;;11.90;3.03;;;7.10;99.90;;;;;;5062165;28;20258;-37
2022/04/09 02:28:03;;;;;;;13.47;3.40;;;7.10;99.90;;;;;;5065557;28;20647;-37
2022/04/09 02:30:31;;;;;;;10.70;3.07;;;7.10;99.90;;;;;;5051991;28;20192;-37
2022/04/09 02:32:58;;;;;;;12.77;2.63;;;7.10;99.90;;;;;;5055573;28;20292;-38
2022/04/09 02:35:28;;;;;;;11.47;2.87;;;7.10;99.90;;;;;;5064623;28;20196;-37
2022/04/09 02:37:59;;;;;;;14.00;3.03;;;7.00;99.90;;;;;;5070054;28;20215;-37
2022/04/09 02:40:26;;;;;;;13.70;2.80;;;7.00;99.90;;;;;;5069605;28;20203;-36
2022/04/09 02:42:53;;;;;;;13.73;2.90;;;7.00;99.90;;;;;;5069776;28;20690;-35
2022/04/09 02:45:22;;;;;;;18.07;3.13;;;7.00;99.90;;;;;;5061449;28;20223;-36
2022/04/09 02:47:54;;;;;;;12.93;2.73;;;7.00;99.90;;;;;;5068485;28;20215;-36
2022/04/09 02:50:23;;;;;;;9.90;2.60;;;7.00;99.90;;;;;;5059193;28;20216;-35
2022/04/09 02:52:51;;;;;;;11.30;2.90;;;7.00;99.90;;;;;;5059319;28;20213;-36
2022/04/09 02:55:20;;;;;;;10.63;2.93;;;7.00;99.90;;;;;;5057723;28;20365;-36
2022/04/09 02:57:50;;;;;;;11.53;3.10;;;7.00;99.90;;;;;;5057473;28;20216;-36
2022/04/09 03:00:20;;;;;;;14.23;2.90;;;6.90;99.90;;;;;;5053134;28;20196;-36
2022/04/09 03:02:47;;;;;;;10.43;2.60;;;6.90;99.90;;;;;;5052502;28;20226;-35
2022/04/09 03:05:14;;;;;;;12.37;3.30;;;6.90;99.90;;;;;;5067374;28;20216;-36
2022/04/09 03:07:42;;;;;;;13.23;3.13;;;6.90;99.90;;;;;;5061413;28;20207;-36
2022/04/09 03:10:09;;;;;;;11.70;2.67;;;6.90;99.90;;;;;;5064181;28;20260;-36
2022/04/09 03:12:45;;;;;;;14.57;3.10;;;6.90;99.90;;;;;;5061177;28;20237;-37
2022/04/09 03:15:15;;;;;;;13.67;3.20;;;6.90;99.90;;;;;;5047221;28;20708;-36
2022/04/09 03:17:47;;;;;;;12.77;3.37;;;6.90;99.90;;;;;;5065330;28;20203;-36
2022/04/09 03:20:15;;;;;;;14.03;3.50;;;6.90;99.90;;;;;;5068975;28;20250;-37
2022/04/09 03:22:46;;;;;;;9.80;2.63;;;6.90;99.90;;;;;;5050503;28;20253;-36
2022/04/09 03:25:14;;;;;;;13.97;3.13;;;6.90;99.90;;;;;;5067096;28;20680;-37
2022/04/09 03:27:44;;;;;;;10.63;3.07;;;6.90;99.90;;;;;;5068178;28;20204;-37
2022/04/09 03:30:13;;;;;;;10.53;2.90;;;6.90;99.90;;;;;;5066689;28;20207;-37
2022/04/09 03:32:48;;;;;;;10.83;3.00;;;6.90;99.90;;;;;;5068873;28;20237;-36
2022/04/09 03:35:20;;;;;;;9.17;2.80;;;6.80;99.90;;;;;;5064620;28;20202;-37
2022/04/09 03:37:48;;;;;;;11.67;2.70;;;6.80;99.90;;;;;;5063240;28;20215;-36
2022/04/09 03:40:15;;;;;;;12.73;2.83;;;6.80;99.90;;;;;;5069550;28;20195;-36
2022/04/09 03:42:43;;;;;;;15.93;3.10;;;6.80;99.90;;;;;;5059856;28;20214;-40
2022/04/09 03:45:10;;;;;;;9.20;2.83;;;6.70;99.90;;;;;;5049083;28;20289;-36
2022/04/09 03:47:37;;;;;;;12.03;2.70;;;6.70;99.90;;;;;;5061461;28;20294;-36
2022/04/09 03:50:07;;;;;;;10.83;3.10;;;6.70;99.90;;;;;;5060065;28;20323;-36
2022/04/09 03:52:38;;;;;;;9.83;2.57;;;6.70;99.90;;;;;;5050120;28;20610;-36
2022/04/09 03:55:07;;;;;;;10.07;3.00;;;6.60;99.90;;;;;;5062587;28;20717;-36
2022/04/09 03:57:39;;;;;;;11.23;2.40;;;6.60;99.90;;;;;;5066852;28;20199;-36
2022/04/09 04:00:08;;;;;;;13.80;2.80;;;6.60;99.90;;;;;;5064609;28;20210;-36
2022/04/09 04:02:38;;;;;;;9.00;2.93;;;6.60;99.90;;;;;;5049157;28;20228;-36
2022/04/09 04:05:08;;;;;;;12.03;3.17;;;6.50;99.90;;;;;;5048411;28;20273;-37
2022/04/09 04:07:38;;;;;;;8.97;3.00;;;6.50;99.90;;;;;;5060700;28;20619;-37
2022/04/09 04:10:11;;;;;;;9.30;2.60;;;6.50;99.90;;;;;;5053098;28;20197;-37
2022/04/09 04:12:43;;;;;;;7.07;2.43;;;6.40;99.90;;;;;;5049867;28;20224;-38
2022/04/09 04:15:13;;;;;;;8.47;2.57;;;6.40;99.90;;;;;;5056525;28;20208;-37
2022/04/09 04:17:44;;;;;;;11.00;3.37;;;6.40;99.90;;;;;;5062314;28;20207;-37
2022/04/09 04:20:12;;;;;;;10.40;2.60;;;6.40;99.90;;;;;;5051241;28;20203;-37
2022/04/09 04:22:42;;;;;;;11.60;2.60;;;6.40;99.90;;;;;;5067494;28;20286;-38
2022/04/09 04:25:12;;;;;;;8.57;2.67;;;6.30;99.90;;;;;;5067295;28;20227;-37
2022/04/09 04:27:46;;;;;;;11.43;2.50;;;6.30;99.90;;;;;;5065472;28;20223;-38
2022/04/09 04:30:14;;;;;;;9.20;2.77;;;6.30;99.90;;;;;;5066832;28;20242;-37
2022/04/09 04:32:42;;;;;;;8.97;2.53;;;6.30;99.90;;;;;;5065866;28;20207;-37
2022/04/09 04:35:10;;;;;;;12.13;2.83;;;6.20;99.90;;;;;;5059339;28;20632;-38
2022/04/09 04:37:46;;;;;;;10.07;3.13;;;6.20;99.90;;;;;;5048349;28;20206;-38
2022/04/09 04:40:15;;;;;;;11.87;3.10;;;6.20;99.90;;;;;;5053727;28;20226;-37
2022/04/09 04:42:45;;;;;;;8.67;3.20;;;6.20;99.90;;;;;;5066490;28;20225;-37
2022/04/09 04:45:13;;;;;;;9.00;2.67;;;6.20;99.90;;;;;;5060790;28;20311;-37
2022/04/09 04:47:47;;;;;;;11.43;3.50;;;6.10;99.90;;;;;;5064513;28;20242;-37
2022/04/09 04:50:15;;;;;;;11.93;3.23;;;6.10;99.90;;;;;;5066386;28;20626;-37
2022/04/09 04:52:43;;;;;;;16.57;3.37;;;6.10;99.90;;;;;;5066797;28;20641;-37
2022/04/09 04:55:11;;;;;;;11.17;3.27;;;6.10;99.90;;;;;;5064618;28;20639;-37
2022/04/09 04:57:52;;;;;;;10.47;3.00;;;6.10;99.90;;;;;;5060119;28;20234;-37
2022/04/09 05:00:26;;;;;;;13.87;3.50;;;6.10;99.90;;;;;;5052160;28;20205;-37
2022/04/09 05:02:53;;;;;;;8.83;2.80;;;6.00;99.90;;;;;;5063886;28;20310;-37
2022/04/09 05:05:23;;;;;;;8.90;2.80;;;6.00;99.90;;;;;;5064074;28;20223;-43
2022/04/09 05:07:53;;;;;;;11.60;3.17;;;6.00;99.90;;;;;;5060798;28;20669;-44
2022/04/09 05:10:22;;;;;;;12.43;3.70;;;6.10;99.90;;;;;;5061618;28;20303;-46
2022/04/09 05:12:54;;;;;;;14.50;3.73;;;6.00;99.90;;;;;;5063354;28;20677;-43
2022/04/09 05:15:21;;;;;;;10.80;3.27;;;6.00;99.90;;;;;;5061282;28;20212;-46
2022/04/09 05:17:48;;;;;;;9.83;2.90;;;6.00;99.90;;;;;;5060133;28;20204;-45
2022/04/09 05:20:20;;;;;;;12.63;3.20;;;6.00;99.90;;;;;;5060673;28;20302;-45
2022/04/09 05:22:50;;;;;;;12.43;3.17;;;6.00;99.90;;;;;;5051619;28;20211;-45
2022/04/09 05:25:22;;;;;;;11.40;3.53;;;6.00;99.90;;;;;;5063480;28;20207;-44
2022/04/09 05:27:52;;;;;;;13.37;3.10;;;6.00;99.90;;;;;;5065319;28;20664;-44
2022/04/09 05:30:23;;;;;;;8.00;3.17;;;6.00;99.90;;;;;;5060355;28;20688;-45
2022/04/09 05:32:52;;;;;;;9.83;3.63;;;6.00;99.90;;;;;;5066056;28;20222;-45
2022/04/09 05:35:22;;;;;;;11.03;3.53;;;6.00;99.90;;;;;;5064062;28;20562;-44
2022/04/09 05:37:51;;;;;;;12.43;3.33;;;6.00;99.90;;;;;;5059539;28;20204;-45
2022/04/09 05:40:22;;;;;;;12.50;3.53;;;6.00;99.90;;;;;;5068914;28;20207;-45
2022/04/09 05:42:49;;;;;;;10.67;3.07;;;6.00;99.90;;;;;;5067432;28;20224;-43
2022/04/09 05:45:21;;;;;;;12.70;3.17;;;6.00;99.90;;;;;;5056828;28;20191;-43
2022/04/09 05:47:48;;;;;;;11.83;3.50;;;6.10;99.90;;;;;;5066649;28;20294;-45
2022/04/09 05:50:17;;;;;;;11.20;3.47;;;6.10;99.90;;;;;;5067279;28;20195;-45
2022/04/09 05:52:49;;;;;;;11.37;3.57;;;6.10;99.90;;;;;;5054091;28;20229;-45
2022/04/09 05:55:18;;;;;;;11.67;3.93;;;6.10;99.90;;;;;;5068980;28;20231;-45
2022/04/09 05:57:51;;;;;;;11.87;3.13;;;6.10;99.90;;;;;;5059023;28;20248;-44
2022/04/09 06:00:23;;;;;;;11.93;3.80;;;6.10;99.90;;;;;;5062138;28;20214;-44
2022/04/09 06:02:52;;;;;;;14.43;3.60;;;6.10;99.90;;;;;;5056180;28;20298;-45
2022/04/09 06:05:20;;;;;;;13.53;3.50;;;6.20;99.90;;;;;;5062624;28;20516;-37
2022/04/09 06:07:48;;;;;;;17.00;3.70;;;6.20;99.90;;;;;;5083786;28;20223;-37
2022/04/09 06:10:18;;;;;;;11.07;3.23;;;6.20;99.90;;;;;;5055939;28;20191;-37
2022/04/09 06:12:45;;;;;;;15.10;3.40;;;6.20;99.90;;;;;;5062653;28;20200;-37
2022/04/09 06:15:12;;;;;;;8.70;3.50;;;6.30;99.90;;;;;;5060648;28;20222;-44
2022/04/09 06:17:40;;;;;;;12.43;3.37;;;6.30;99.90;;;;;;5051830;28;20238;-43
2022/04/09 06:20:10;;;;;;;11.70;3.63;;;6.40;99.90;;;;;;5072646;28;20202;-44
2022/04/09 06:22:40;;;;;;;16.40;3.97;;;6.40;99.90;;;;;;5062449;28;20195;-45
2022/04/09 06:25:10;;;;;;;13.40;4.13;;;6.40;99.90;;;;;;5059187;28;20282;-45
2022/04/09 06:27:39;;;;;;;13.47;3.30;;;6.50;99.90;;;;;;5053676;28;20319;-44
2022/04/09 06:30:08;;;;;;;13.67;3.47;;;6.50;99.90;;;;;;5058862;28;20282;-43
2022/04/09 06:32:35;;;;;;;14.97;3.60;;;6.50;99.90;;;;;;5058992;28;20200;-44
2022/04/09 06:35:04;;;;;;;10.10;3.50;;;6.60;99.90;;;;;;5058322;28;20238;-44
2022/04/09 06:37:32;;;;;;;14.67;3.60;;;6.70;99.90;;;;;;5067523;28;20204;-44
2022/04/09 06:39:59;;;;;;;14.93;3.53;;;6.70;99.90;;;;;;5056539;28;20199;-45
2022/04/09 06:42:27;;;;;;;11.20;2.90;;;6.80;99.90;;;;;;5068472;28;20249;-38
2022/04/09 06:44:54;;;;;;;13.23;3.37;;;6.80;99.90;;;;;;5057058;28;20560;-37
2022/04/09 06:47:21;;;;;;;11.70;3.40;;;6.90;99.90;;;;;;5061213;28;20258;-37
2022/04/09 06:49:51;;;;;;;11.53;3.70;;;6.90;99.90;;;;;;5055174;28;20946;-37
2022/04/09 06:52:20;;;;;;;9.80;3.27;;;7.00;99.90;;;;;;5068935;28;20215;-37
2022/04/09 06:54:48;;;;;;;10.30;3.73;;;7.00;99.90;;;;;;5058162;28;20232;-37
2022/04/09 06:57:17;;;;;;;13.60;3.53;;;7.10;99.90;;;;;;5058300;28;20361;-37
2022/04/09 06:59:47;;;;;;;15.83;4.00;;;7.10;99.90;;;;;;5051522;28;20257;-37
2022/04/09 07:02:15;;;;;;;13.67;3.20;;;7.20;99.90;;;;;;5056050;28;20212;-37
2022/04/09 07:04:44;;;;;;;11.27;2.83;;;7.30;99.90;;;;;;5052674;28;20597;-37
2022/04/09 07:07:22;;;;;;;11.47;3.20;;;7.30;99.90;;;;;;5063743;28;20512;-37
2022/04/09 07:10:04;;;;;;;10.00;3.00;;;7.40;99.90;;;;;;5057528;28;20216;-38
2022/04/09 07:12:34;;;;;;;11.40;3.47;;;7.50;99.90;;;;;;5063562;28;20226;-37
2022/04/09 07:15:02;;;;;;;15.20;3.37;;;7.60;99.90;;;;;;5055024;28;20199;-38
2022/04/09 07:17:30;;;;;;;17.37;3.67;;;7.60;99.90;;;;;;5059857;28;20196;-37
2022/04/09 07:19:58;;;;;;;13.93;2.83;;;7.60;99.90;;;;;;5071979;28;20223;-37
2022/04/09 07:22:28;;;;;;;18.30;3.70;;;7.60;99.90;;;;;;5078980;28;20322;-37
2022/04/09 07:25:01;;;;;;;13.33;3.13;;;7.70;99.90;;;;;;5066299;28;20203;-37
2022/04/09 07:27:44;;;;;;;19.50;4.07;;;7.70;99.90;;;;;;5061364;28;20219;-37
2022/04/09 07:30:18;;;;;;;14.40;3.33;;;7.80;99.90;;;;;;5048967;28;20219;-37
2022/04/09 07:32:47;;;;;;;12.13;3.30;;;7.80;99.90;;;;;;5057606;28;20555;-37
2022/04/09 07:35:15;;;;;;;8.53;2.67;;;7.80;99.90;;;;;;5056387;28;20199;-37
2022/04/09 07:37:47;;;;;;;14.73;3.17;;;7.80;99.90;;;;;;5066542;28;20226;-43
2022/04/09 07:40:15;;;;;;;13.47;2.77;;;7.80;99.90;;;;;;5065637;28;20219;-43
2022/04/09 07:42:45;;;;;;;14.03;3.03;;;7.90;99.90;;;;;;5057127;28;20696;-42
2022/04/09 07:45:14;;;;;;;13.93;2.93;;;7.90;99.90;;;;;;5056297;28;20211;-37
2022/04/09 07:47:51;;;;;;;14.07;3.00;;;7.90;99.90;;;;;;5052911;28;20247;-37
2022/04/09 07:50:19;;;;;;;11.37;2.50;;;7.90;99.90;;;;;;5048237;28;20204;-37
2022/04/09 07:52:49;;;;;;;16.23;2.73;;;8.00;99.90;;;;;;5053897;28;20283;-37
2022/04/09 07:55:16;;;;;;;13.53;3.20;;;8.00;99.90;;;;;;5046988;28;20667;-37
2022/04/09 07:57:50;;;;;;;12.37;2.90;;;8.10;99.90;;;;;;5048019;28;20235;-42
2022/04/09 08:00:20;;;;;;;17.00;3.47;;;8.10;99.90;;;;;;5048668;28;20283;-42
2022/04/09 08:02:49;;;;;;;10.37;3.00;;;8.10;99.90;;;;;;5045960;28;20226;-43
2022/04/09 08:05:18;;;;;;;10.50;3.20;;;8.20;99.90;;;;;;5062567;28;20625;-42
2022/04/09 08:07:47;;;;;;;11.80;3.30;;;8.20;99.90;;;;;;5060479;28;20638;-42
2022/04/09 08:10:20;;;;;;;12.50;3.03;;;8.30;99.90;;;;;;5067162;28;20629;-43
2022/04/09 08:12:51;;;;;;;10.23;2.93;;;8.40;99.90;;;;;;5066492;28;20230;-42
2022/04/09 08:15:19;;;;;;;11.93;3.37;;;8.40;99.90;;;;;;5066924;28;20249;-43
2022/04/09 08:17:54;;;;;;;16.10;3.60;;;8.40;99.90;;;;;;5065942;28;20645;-43
2022/04/09 08:20:41;;;;;;;13.43;3.80;;;8.50;99.90;;;;;;5070259;28;20203;-43
2022/04/09 08:23:10;;;;;;;18.07;3.80;;;8.50;99.90;;;;;;5047647;28;20200;-43
2022/04/09 08:25:39;;;;;;;15.07;3.97;;;8.50;99.90;;;;;;5067825;28;20295;-37
2022/04/09 08:28:09;;;;;;;14.70;3.40;;;8.60;99.90;;;;;;5060651;28;20673;-37
2022/04/09 08:30:38;;;;;;;15.63;3.83;;;8.60;99.90;;;;;;5056518;28;20674;-37
2022/04/09 08:33:10;;;;;;;12.60;3.57;;;8.70;99.90;;;;;;5048963;28;20683;-37
2022/04/09 08:35:37;;;;;;;17.03;3.83;;;8.70;99.90;;;;;;5067437;28;20838;-37
2022/04/09 08:38:07;;;;;;;8.07;3.67;;;8.70;99.90;;;;;;5062117;28;20214;-37
2022/04/09 08:40:38;;;;;;;9.53;3.00;;;8.80;99.90;;;;;;5064508;28;20207;-37
2022/04/09 08:43:08;;;;;;;9.73;3.20;;;8.90;99.90;;;;;;5047399;28;20239;-37
2022/04/09 08:45:36;;;;;;;10.70;2.90;;;8.90;99.90;;;;;;5047522;28;20819;-38
2022/04/09 08:48:09;;;;;;;12.60;3.00;;;9.00;99.90;;;;;;5058474;28;20234;-38
2022/04/09 08:50:39;;;;;;;10.63;3.00;;;9.00;99.90;;;;;;5046221;28;20315;-37
2022/04/09 08:53:09;;;;;;;6.17;2.53;;;9.00;99.90;;;;;;5059302;28;20227;-37
2022/04/09 08:55:37;;;;;;;8.87;2.97;;;9.10;99.90;;;;;;5065021;28;20241;-37
2022/04/09 08:58:06;;;;;;;7.23;2.23;;;9.10;99.90;;;;;;5056593;28;20304;-38
2022/04/09 09:00:36;;;;;;;11.13;2.20;;;9.20;99.90;;;;;;5051854;28;20207;-42
2022/04/09 09:03:04;;;;;;;9.83;2.63;;;9.20;99.90;;;;;;5055787;28;20705;-38
2022/04/09 09:05:37;;;;;;;7.47;2.47;;;9.30;99.90;;;;;;5048825;28;20220;-38
2022/04/09 09:08:13;;;;;;;6.07;1.97;;;9.30;99.90;;;;;;5051366;28;20690;-38
2022/04/09 09:10:41;;;;;;;6.60;1.90;;;9.30;99.90;;;;;;5047304;28;20208;-38
2022/04/09 09:13:12;;;;;;;10.00;3.23;;;9.40;99.90;;;;;;5048272;28;20224;-38
2022/04/09 09:15:52;;;;;;;8.20;2.50;;;9.40;99.90;;;;;;5051912;28;20376;-38
2022/04/09 09:18:20;;;;;;;7.80;2.73;;;9.40;99.90;;;;;;5060030;28;20578;-38
2022/04/09 09:20:56;;;;;;;6.23;2.20;;;9.50;99.90;;;;;;5057613;28;20196;-38
2022/04/09 09:23:29;;;;;;;7.23;2.30;;;9.50;99.90;;;;;;5065081;28;20677;-38
2022/04/09 09:25:59;;;;;;;6.00;2.00;;;9.60;99.90;;;;;;5056607;28;20208;-38
2022/04/09 09:28:28;;;;;;;6.97;2.33;;;9.60;99.90;;;;;;5051183;28;20227;-38
2022/04/09 09:30:56;;;;;;;5.53;2.00;;;9.60;99.90;;;;;;5052350;28;20294;-38
2022/04/09 09:33:27;;;;;;;8.10;2.20;;;9.70;99.90;;;;;;5063342;28;20593;-38
2022/04/09 09:36:30;;;;;;;7.03;2.07;;;9.70;99.90;;;;;;5058455;28;20203;-38
2022/04/09 09:39:04;;;;;;;7.30;2.40;;;9.70;99.90;;;;;;5060458;28;20589;-38
2022/04/09 09:41:35;;;;;;;7.50;2.37;;;9.70;99.90;;;;;;5046771;28;20199;-38
2022/04/09 09:44:08;;;;;;;7.70;2.03;;;9.80;99.90;;;;;;5060271;28;20242;-37
2022/04/09 09:46:42;;;;;;;8.60;2.30;;;9.90;99.90;;;;;;5055103;28;20261;-38
2022/04/09 09:49:14;;;;;;;10.77;2.27;;;9.90;99.90;;;;;;5051050;28;20204;-43
2022/04/09 09:51:45;;;;;;;5.17;2.10;;;10.00;99.90;;;;;;5054968;28;20852;-43
2022/04/09 09:54:19;;;;;;;9.27;2.37;;;9.90;99.90;;;;;;5046557;28;20319;-42
2022/04/09 09:56:49;;;;;;;8.27;2.07;;;10.00;99.90;;;;;;5051049;28;20261;-43
2022/04/09 09:59:16;;;;;;;4.63;1.90;;;10.00;99.90;;;;;;5063930;28;20210;-43
2022/04/09 10:01:49;;;;;;;6.50;2.30;;;10.00;99.90;;;;;;5066190;28;20204;-42
2022/04/09 10:04:19;;;;;;;7.47;1.97;;;10.00;99.90;;;;;;5066129;28;20768;-42
2022/04/09 10:06:50;;;;;;;7.47;2.17;;;10.10;99.90;;;;;;5058362;28;20228;-42
2022/04/09 10:09:19;;;;;;;4.73;2.23;;;10.10;99.90;;;;;;5050490;28;20311;-42
2022/04/09 10:11:54;;;;;;;5.37;2.27;;;10.20;99.90;;;;;;5055281;28;20204;-42
2022/04/09 10:14:22;;;;;;;5.63;2.10;;;10.30;99.90;;;;;;5055652;28;20207;-43
2022/04/09 10:16:53;;;;;;;5.30;2.40;;;10.30;99.90;;;;;;5053006;28;20326;-42
2022/04/09 10:19:23;;;;;;;6.70;2.43;;;10.40;99.90;;;;;;5056074;28;20291;-42
2022/04/09 10:21:51;;;;;;;6.30;2.00;;;10.50;99.90;;;;;;5050537;28;20262;-43
2022/04/09 10:24:23;;;;;;;6.43;2.03;;;10.50;99.90;;;;;;5058922;28;20207;-43
2022/04/09 10:26:53;;;;;;;7.23;2.50;;;10.50;99.90;;;;;;5067113;28;20230;-44
2022/04/09 10:29:25;;;;;;;9.77;2.40;;;10.50;99.90;;;;;;5067942;28;20199;-42
2022/04/09 10:31:55;;;;;;;8.70;2.40;;;10.50;99.90;;;;;;5067692;28;20200;-43
2022/04/09 10:34:25;;;;;;;10.17;2.57;;;10.50;99.90;;;;;;5068533;28;20254;-44
2022/04/09 10:36:55;;;;;;;5.40;2.67;;;10.50;99.90;;;;;;5064225;28;20289;-43
2022/04/09 10:39:23;;;;;;;6.90;2.20;;;10.50;99.90;;;;;;5057278;28;20212;-43
2022/04/09 10:41:55;;;;;;;7.60;2.50;;;10.60;99.90;;;;;;5058127;28;20223;-42
2022/04/09 10:44:45;;;;;;;3.83;1.97;;;10.60;99.90;;;;;;5059252;28;20231;-42
2022/04/09 10:47:16;;;;;;;8.17;2.60;;;10.60;99.90;;;;;;5056851;28;20284;-44
2022/04/09 10:50:05;;;;;;;6.87;2.20;;;10.60;99.90;;;;;;5055740;28;20280;-38
2022/04/09 10:52:37;;;;;;;6.63;2.73;;;10.70;99.90;;;;;;5058536;28;20204;-38
2022/04/09 10:55:10;;;;;;;6.20;2.30;;;10.70;99.90;;;;;;5062735;28;20223;-38
2022/04/09 10:57:47;;;;;;;8.57;2.10;;;10.70;99.90;;;;;;5065984;28;20732;-38
2022/04/09 11:00:23;;;;;;;4.03;2.60;;;10.70;99.90;;;;;;5060305;28;20203;-38
2022/04/09 11:03:15;;;;;;;8.37;2.90;;;10.70;99.90;;;;;;5060620;28;20206;-42
2022/04/09 11:05:47;;;;;;;5.83;2.33;;;10.70;99.90;;;;;;5055172;28;20207;-43
2022/04/09 11:08:20;;;;;;;9.30;2.57;;;10.70;99.90;;;;;;5064076;28;20226;-38
2022/04/09 11:10:49;;;;;;;7.67;2.60;;;10.70;99.90;;;;;;5061441;28;20299;-38
2022/04/09 11:13:31;;;;;;;4.87;2.30;;;10.70;99.90;;;;;;5060893;28;20250;-38
2022/04/09 11:16:03;;;;;;;9.70;2.63;;;10.70;99.90;;;;;;5053562;28;20226;-38
2022/04/09 11:18:31;;;;;;;7.20;2.63;;;10.80;99.90;;;;;;5068466;28;20654;-38
2022/04/09 11:21:01;;;;;;;5.27;2.40;;;10.90;99.90;;;;;;5068757;28;20253;-39
2022/04/09 11:23:28;;;;;;;7.90;2.80;;;10.90;99.90;;;;;;5052648;28;20394;-38
2022/04/09 11:26:03;;;;;;;5.93;2.57;;;11.00;99.90;;;;;;5056796;28;20303;-38
2022/04/09 11:28:38;;;;;;;7.10;2.70;;;11.10;99.90;;;;;;5068970;28;20222;-39
2022/04/09 11:31:06;;;;;;;6.50;2.43;;;11.10;99.90;;;;;;5058561;28;20665;-38
2022/04/09 11:33:33;;;;;;;4.37;2.47;;;11.20;99.90;;;;;;5051440;28;20200;-38
2022/04/09 11:36:02;;;;;;;5.40;2.43;;;11.30;99.90;;;;;;5052556;28;20672;-38
2022/04/09 11:38:33;;;;;;;7.43;2.40;;;11.40;99.90;;;;;;5066403;28;20210;-36
2022/04/09 11:41:21;;;;;;;7.50;2.90;;;11.40;99.90;;;;;;5056957;28;20204;-37
2022/04/09 11:43:48;;;;;;;7.53;2.37;;;11.40;99.90;;;;;;5062097;28;20298;-37
2022/04/09 11:46:18;;;;;;;5.27;2.30;;;11.50;99.90;;;;;;5067139;28;20867;-37
2022/04/09 11:49:00;;;;;;;5.27;1.97;;;11.50;99.90;;;;;;5055745;28;20308;-37
2022/04/09 11:51:32;;;;;;;4.50;1.83;;;11.50;99.90;;;;;;5057367;28;20215;-37
2022/04/09 11:54:15;;;;;;;6.13;1.80;;;11.40;99.90;;;;;;5060732;28;20513;-37
2022/04/09 11:56:45;;;;;;;3.17;1.30;;;11.40;99.90;;;;;;5066745;28;20242;-36
2022/04/09 11:59:15;;;;;;;3.33;1.37;;;11.30;99.90;;;;;;5065731;28;20544;-37
2022/04/09 12:01:46;;;;;;;3.13;1.30;;;11.30;99.90;;;;;;5066042;28;20773;-36
2022/04/09 12:04:20;;;;;;;3.80;1.47;;;11.30;99.90;;;;;;5066482;28;20787;-36
2022/04/09 12:06:50;;;;;;;2.47;1.20;;;11.30;99.90;;;;;;5063734;28;20251;-36
2022/04/09 12:09:21;;;;;;;4.53;1.20;;;11.30;99.90;;;;;;5055010;28;20197;-37
2022/04/09 12:11:55;;;;;;;4.80;1.17;;;11.30;99.90;;;;;;5057149;28;20307;-36
2022/04/09 12:14:27;;;;;;;2.87;1.10;;;11.30;99.90;;;;;;5057166;28;20205;-36
2022/04/09 12:17:08;;;;;;;2.43;1.00;;;11.20;99.90;;;;;;5057115;28;20219;-36
2022/04/09 12:19:35;;;;;;;3.10;0.70;;;11.20;99.90;;;;;;5052499;28;20286;-37
2022/04/09 12:22:22;;;;;;;2.27;0.80;;;11.10;99.90;;;;;;5047517;28;20203;-37
2022/04/09 12:24:57;;;;;;;2.17;0.90;;;11.00;99.90;;;;;;5056213;28;20196;-37
2022/04/09 12:27:46;;;;;;;4.03;1.10;;;10.90;99.90;;;;;;5055172;28;20334;-37
2022/04/09 12:30:37;;;;;;;2.90;1.30;;;11.00;99.90;;;;;;5064734;28;20199;-37
2022/04/09 12:33:10;;;;;;;2.33;1.17;;;11.00;99.90;;;;;;5060031;28;20212;-37
2022/04/09 12:35:41;;;;;;;3.50;1.80;;;11.10;99.90;;;;;;5052085;28;20264;-37
2022/04/09 12:38:13;;;;;;;3.30;1.30;;;11.10;99.90;;;;;;5061605;28;20226;-37
2022/04/09 12:40:46;;;;;;;4.10;1.73;;;11.10;99.90;;;;;;5057421;28;20679;-37
2022/04/09 12:43:36;;;;;;;3.03;1.80;;;11.20;99.90;;;;;;5056239;28;20651;-38
2022/04/09 12:46:15;;;;;;;3.77;1.70;;;11.30;99.90;;;;;;5054061;28;20284;-37
2022/04/09 12:48:51;;;;;;;4.13;1.87;;;11.40;99.90;;;;;;5057090;28;20812;-38
2022/04/09 12:51:20;;;;;;;3.33;1.10;;;11.40;99.90;;;;;;5057961;28;20206;-37
2022/04/09 12:53:55;;;;;;;3.07;1.57;;;11.50;99.90;;;;;;5053901;28;20211;-38
2022/04/09 12:56:26;;;;;;;1.80;1.10;;;11.60;99.90;;;;;;5056967;28;20196;-42
2022/04/09 12:58:53;;;;;;;3.50;0.80;;;11.60;99.90;;;;;;5052784;28;20214;-37
2022/04/09 13:01:22;;;;;;;0.83;0.63;;;11.50;99.90;;;;;;5054436;28;20207;-38
2022/04/09 13:03:50;;;;;;;2.10;0.93;;;11.50;99.90;;;;;;5054739;28;20207;-38
2022/04/09 13:06:17;;;;;;;2.83;1.00;;;11.50;99.90;;;;;;5051781;28;20273;-37